Time;durP1;ratioP1;P1;durP2;ratioP2;P2;SDS_P1;SDS_P2;PMS_P1;PMS_P2;Temp;Humidity;BMP_temperature;BMP_pressure;BME280_temperature;BME280_humidity;BME280_pressure;Samples;Min_cycle;Max_cycle;Signal;HPM_P1;HPM_P2
2023/07/03 00:00:12;;;;;;;0.47;0.47;;;15.60;26.30;;;;;;4898875;29;20420;-87
2023/07/03 00:02:39;;;;;;;0.75;0.50;;;15.60;99.60;;;;;;4899397;29;20060;-88
2023/07/03 00:05:08;;;;;;;0.80;0.57;;;15.60;99.90;;;;;;4898935;29;20079;-88
2023/07/03 00:07:34;;;;;;;0.25;0.22;;;15.60;99.90;;;;;;4916205;29;20103;-88
2023/07/03 00:09:59;;;;;;;0.30;0.30;;;15.60;99.90;;;;;;4901574;29;20107;-88
2023/07/03 00:12:25;;;;;;;0.97;0.43;;;15.50;99.90;;;;;;4886696;29;20044;-89
2023/07/03 00:14:51;;;;;;;1.00;0.83;;;15.60;99.90;;;;;;4902860;29;20323;-88
2023/07/03 00:17:16;;;;;;;0.82;0.75;;;15.50;99.90;;;;;;4918710;29;20044;-88
2023/07/03 00:19:42;;;;;;;0.95;0.45;;;15.50;99.90;;;;;;4902502;29;20063;-88
2023/07/03 00:22:08;;;;;;;0.90;0.83;;;15.50;99.90;;;;;;4918221;29;20052;-87
2023/07/03 00:24:34;;;;;;;1.02;0.57;;;15.50;99.90;;;;;;4902357;29;20135;-88
2023/07/03 00:27:00;;;;;;;1.03;0.53;;;15.50;99.90;;;;;;4902343;29;20102;-88
2023/07/03 00:29:28;;;;;;;;;;;15.50;99.90;;;;;;4919120;29;20139;-88
2023/07/03 00:31:54;;;;;;;1.75;0.75;;;15.50;1.00;;;;;;4899156;29;19993;-88
2023/07/03 00:34:20;;;;;;;0.63;0.50;;;15.50;1.00;;;;;;4898886;29;20092;-87
2023/07/03 00:36:46;;;;;;;0.40;0.40;;;15.50;1.00;;;;;;4870031;29;20056;-87
2023/07/03 00:39:12;;;;;;;1.23;0.68;;;15.40;1.00;;;;;;4885963;29;20113;-87
2023/07/03 00:41:38;;;;;;;0.22;0.22;;;15.40;1.00;;;;;;4918751;29;20096;-88
2023/07/03 00:44:09;;;;;;;0.50;0.50;;;15.40;1.00;;;;;;4902203;29;20048;-88
2023/07/03 00:46:34;;;;;;;0.65;0.63;;;15.40;1.00;;;;;;4918876;29;20048;-87
2023/07/03 00:49:00;;;;;;;0.88;0.73;;;15.30;1.00;;;;;;4901644;29;20051;-87
2023/07/03 00:51:26;;;;;;;0.20;0.20;;;15.30;1.00;;;;;;4901638;29;20050;-88
2023/07/03 00:53:52;;;;;;;0.73;0.40;;;15.30;1.00;;;;;;4886213;29;20138;-88
2023/07/03 00:56:17;;;;;;;0.70;0.70;;;15.40;1.00;;;;;;4901299;29;20519;-88
2023/07/03 00:58:43;;;;;;;1.67;0.90;;;15.30;1.00;;;;;;4901688;29;20100;-87
2023/07/03 01:01:43;;;;;;;1.00;0.47;;;15.20;1.00;;;;;;4917943;29;20111;-87
2023/07/03 01:04:11;;;;;;;0.77;0.63;;;15.20;1.00;;;;;;4901540;29;20055;-86
2023/07/03 01:06:44;;;;;;;0.47;0.47;;;15.20;1.00;;;;;;4902007;29;20052;-88
2023/07/03 01:09:13;;;;;;;0.77;0.77;;;15.20;1.00;;;;;;4901292;29;20127;-87
2023/07/03 01:11:39;;;;;;;0.70;0.47;;;15.20;1.00;;;;;;4901807;29;20056;-88
2023/07/03 01:14:07;;;;;;;1.30;0.70;;;15.20;1.00;;;;;;4901686;29;20055;-88
2023/07/03 01:16:34;;;;;;;0.20;0.20;;;15.20;1.00;;;;;;4917731;29;20051;-88
2023/07/03 01:19:00;;;;;;;;;;;15.20;1.00;;;;;;4918667;29;20052;-88
2023/07/03 01:21:49;;;;;;;0.60;0.50;;;15.20;14.40;;;;;;4884703;29;19923;-88
2023/07/03 01:24:29;;;;;;;1.27;0.57;;;15.20;1.00;;;;;;4917835;29;20044;-87
2023/07/03 01:26:55;;;;;;;1.13;0.52;;;15.20;1.00;;;;;;4917752;29;20091;-88
2023/07/03 01:29:22;;;;;;;1.20;0.60;;;15.20;1.00;;;;;;4917549;29;20580;-92
2023/07/03 01:31:50;;;;;;;0.52;0.50;;;15.20;1.00;;;;;;4900894;29;20531;-91
2023/07/03 01:34:17;;;;;;;1.20;0.60;;;15.20;1.00;;;;;;4900388;29;20072;-90
2023/07/03 01:36:43;;;;;;;0.40;0.40;;;15.20;1.00;;;;;;4885063;29;20429;-91
2023/07/03 01:39:08;;;;;;;0.40;0.40;;;15.20;1.00;;;;;;4918045;29;20461;-91
2023/07/03 01:41:35;;;;;;;0.70;0.70;;;15.20;1.00;;;;;;4917560;29;20126;-91
2023/07/03 01:44:01;;;;;;;0.50;0.50;;;15.20;2.60;;;;;;4885298;29;20048;-88
2023/07/03 01:46:27;;;;;;;0.25;0.25;;;15.20;1.00;;;;;;4884752;29;20305;-91
2023/07/03 01:48:53;;;;;;;1.23;0.60;;;15.20;1.00;;;;;;4900941;29;20505;-91
2023/07/03 01:51:37;;;;;;;3.40;0.60;;;15.20;1.00;;;;;;4917400;29;20059;-90
2023/07/03 01:54:21;;;;;;;1.33;0.50;;;15.20;1.00;;;;;;4917691;29;20105;-91
2023/07/03 01:56:50;;;;;;;1.02;0.57;;;15.20;1.00;;;;;;4917507;29;20048;-91
2023/07/03 01:59:20;;;;;;;0.40;0.40;;;15.20;1.00;;;;;;4885420;29;20048;-89
2023/07/03 02:01:52;;;;;;;0.95;0.50;;;15.20;1.00;;;;;;4916347;29;20135;-90
2023/07/03 02:04:35;;;;;;;0.93;0.70;;;15.20;1.00;;;;;;4884173;29;20062;-91
2023/07/03 02:07:03;;;;;;;0.38;0.38;;;15.20;1.00;;;;;;4900888;29;20048;-91
2023/07/03 02:09:30;;;;;;;3.00;0.57;;;15.20;1.00;;;;;;4900392;29;20052;-92
2023/07/03 02:11:56;;;;;;;0.47;0.47;;;15.20;1.00;;;;;;4917960;29;20058;-91
2023/07/03 02:14:24;;;;;;;0.25;0.25;;;15.20;1.00;;;;;;4900594;29;20047;-91
2023/07/03 02:16:52;;;;;;;0.63;0.30;;;15.20;1.00;;;;;;4903109;29;20087;-91
2023/07/03 02:19:28;;;;;;;0.75;0.40;;;15.20;1.00;;;;;;4903234;29;20064;-89
2023/07/03 02:21:55;;;;;;;0.28;0.28;;;15.30;1.00;;;;;;4885011;29;20059;-91
2023/07/03 02:24:22;;;;;;;1.05;0.95;;;15.30;1.00;;;;;;4916796;29;20404;-90
2023/07/03 02:26:48;;;;;;;0.68;0.68;;;15.30;1.00;;;;;;4915938;29;20052;-92
2023/07/03 02:29:14;;;;;;;0.95;0.70;;;15.30;6.30;;;;;;4884904;29;20054;-92
2023/07/03 02:31:40;;;;;;;0.77;0.77;;;15.30;9.90;;;;;;4899641;29;20047;-92
2023/07/03 02:34:05;;;;;;;0.65;0.65;;;15.20;11.90;;;;;;4869216;29;20092;-92
2023/07/03 02:36:34;;;;;;;0.77;0.63;;;15.20;1.00;;;;;;4880960;29;20048;-91
2023/07/03 02:39:01;;;;;;;0.20;0.20;;;15.20;1.00;;;;;;4881184;29;20086;-92
2023/07/03 02:41:28;;;;;;;0.43;0.43;;;15.20;1.00;;;;;;4897605;29;20135;-92
2023/07/03 02:43:53;;;;;;;0.22;0.20;;;15.20;1.00;;;;;;4881453;29;20048;-92
2023/07/03 02:46:19;;;;;;;1.08;0.47;;;15.20;1.00;;;;;;4865924;29;20477;-87
2023/07/03 02:48:45;;;;;;;0.95;0.93;;;15.20;1.00;;;;;;4881985;29;20054;-91
2023/07/03 02:51:11;;;;;;;0.40;0.30;;;15.20;1.00;;;;;;4881671;29;20512;-92
2023/07/03 02:53:37;;;;;;;0.17;0.17;;;15.10;1.00;;;;;;4865528;29;20045;-92
2023/07/03 02:56:03;;;;;;;0.63;0.47;;;15.10;1.00;;;;;;4865891;29;20157;-92
2023/07/03 02:58:29;;;;;;;0.20;0.20;;;15.10;1.00;;;;;;4880259;29;20044;-93
2023/07/03 03:00:55;;;;;;;1.30;1.10;;;15.10;1.00;;;;;;4866121;29;20052;-93
2023/07/03 03:03:20;;;;;;;0.20;0.20;;;15.10;1.00;;;;;;4866078;29;20367;-92
2023/07/03 03:05:46;;;;;;;0.40;0.30;;;15.00;1.00;;;;;;4880847;29;20686;-91
2023/07/03 03:08:12;;;;;;;0.67;0.67;;;15.00;1.00;;;;;;4897626;29;20045;-92
2023/07/03 03:10:38;;;;;;;1.27;0.40;;;15.00;1.00;;;;;;4880994;29;20108;-92
2023/07/03 03:13:04;;;;;;;1.45;0.40;;;15.00;1.00;;;;;;4866211;29;20048;-92
2023/07/03 03:15:35;;;;;;;1.27;0.52;;;14.90;1.00;;;;;;4898241;29;20045;-90
2023/07/03 03:18:01;;;;;;;0.43;0.43;;;15.00;1.00;;;;;;4881772;29;20052;-92
2023/07/03 03:20:27;;;;;;;;;;;14.90;1.00;;;;;;4866125;29;20210;-92
2023/07/03 03:22:52;;;;;;;0.52;0.20;;;14.90;1.00;;;;;;4880514;29;20013;-88
2023/07/03 03:25:18;;;;;;;0.50;0.20;;;14.90;1.00;;;;;;4865352;29;20124;-91
2023/07/03 03:27:44;;;;;;;0.20;0.20;;;14.80;1.00;;;;;;4879978;29;20112;-91
2023/07/03 03:30:10;;;;;;;0.50;0.50;;;14.80;1.00;;;;;;4897271;29;20597;-91
2023/07/03 03:32:36;;;;;;;0.20;0.20;;;14.80;99.90;;;;;;4883783;29;20156;-91
2023/07/03 03:35:02;;;;;;;0.20;0.20;;;14.80;99.90;;;;;;4883652;29;20097;-91
2023/07/03 03:37:28;;;;;;;0.60;0.20;;;14.70;99.90;;;;;;4882843;29;20051;-90
2023/07/03 03:39:53;;;;;;;0.10;0.10;;;14.70;99.90;;;;;;4899472;29;20485;-92
2023/07/03 03:42:19;;;;;;;0.60;0.40;;;14.70;99.90;;;;;;4883626;29;20501;-92
2023/07/03 03:44:45;;;;;;;0.17;0.17;;;14.60;99.90;;;;;;4900877;29;20052;-91
2023/07/03 03:47:10;;;;;;;0.10;0.10;;;14.60;99.90;;;;;;4887198;29;20048;-91
2023/07/03 03:49:37;;;;;;;0.33;0.20;;;14.50;99.90;;;;;;4886858;29;20056;-90
2023/07/03 03:52:02;;;;;;;0.10;0.10;;;14.50;99.90;;;;;;4902779;29;20056;-91
2023/07/03 03:54:29;;;;;;;0.52;0.13;;;14.40;99.90;;;;;;4902456;29;20066;-87
2023/07/03 03:56:55;;;;;;;1.10;0.32;;;14.40;99.90;;;;;;4902339;29;20168;-92
2023/07/03 03:59:21;;;;;;;0.23;0.20;;;14.40;99.90;;;;;;4902574;29;20139;-91
2023/07/03 04:01:48;;;;;;;0.10;0.10;;;14.30;99.90;;;;;;4918833;29;20087;-91
2023/07/03 04:04:14;;;;;;;0.45;0.45;;;14.40;99.90;;;;;;4902282;29;20389;-91
2023/07/03 04:06:40;;;;;;;0.10;0.10;;;14.30;99.90;;;;;;4886625;29;20052;-91
2023/07/03 04:09:07;;;;;;;0.38;0.20;;;14.30;99.90;;;;;;4917957;29;20123;-91
2023/07/03 04:11:33;;;;;;;0.47;0.22;;;14.30;99.90;;;;;;4918705;29;20056;-91
2023/07/03 04:13:59;;;;;;;0.20;0.20;;;14.40;99.90;;;;;;4901750;29;20063;-90
2023/07/03 04:16:28;;;;;;;0.70;0.20;;;14.30;99.90;;;;;;4902406;29;20106;-92
2023/07/03 04:18:54;;;;;;;0.10;0.10;;;14.30;99.90;;;;;;4918839;29;20044;-92
2023/07/03 04:21:20;;;;;;;0.13;0.13;;;14.30;99.90;;;;;;4902888;29;20075;-91
2023/07/03 04:23:46;;;;;;;0.93;0.40;;;14.30;99.90;;;;;;4902131;29;20489;-89
2023/07/03 04:26:12;;;;;;;0.75;0.28;;;14.30;99.90;;;;;;4902652;29;20052;-90
2023/07/03 04:28:37;;;;;;;0.07;0.07;;;14.30;99.90;;;;;;4886279;29;20051;-91
2023/07/03 04:31:03;;;;;;;0.00;0.00;;;14.30;99.90;;;;;;4902596;29;20131;-91
2023/07/03 04:33:29;;;;;;;0.30;0.30;;;14.30;99.90;;;;;;4894664;29;20418;-91
2023/07/03 04:35:55;;;;;;;3.15;0.25;;;14.30;99.90;;;;;;4868116;29;20112;-92
2023/07/03 04:38:23;;;;;;;2.08;0.20;;;14.40;99.90;;;;;;4883834;29;20476;-91
2023/07/03 04:40:51;;;;;;;0.35;0.20;;;14.40;99.90;;;;;;4883456;29;20056;-91
2023/07/03 04:43:17;;;;;;;0.20;0.20;;;14.50;99.90;;;;;;4883665;29;20129;-91
2023/07/03 04:45:45;;;;;;;0.10;0.10;;;14.50;99.90;;;;;;4883445;29;20052;-92
2023/07/03 04:48:11;;;;;;;0.40;0.20;;;14.50;99.90;;;;;;4883205;29;20537;-91
2023/07/03 04:50:37;;;;;;;0.52;0.20;;;14.60;99.90;;;;;;4883046;29;20048;-90
2023/07/03 04:53:03;;;;;;;0.03;0.03;;;14.70;99.90;;;;;;4868097;29;20128;-91
2023/07/03 04:55:30;;;;;;;0.45;0.20;;;14.70;99.90;;;;;;4866309;29;20361;-91
2023/07/03 04:57:59;;;;;;;0.20;0.20;;;14.80;99.90;;;;;;4899120;29;20040;-91
2023/07/03 05:00:27;;;;;;;0.45;0.20;;;14.90;99.90;;;;;;4882804;29;20057;-91
2023/07/03 05:03:00;;;;;;;0.90;0.30;;;14.90;99.90;;;;;;4852546;29;20064;-91
2023/07/03 05:05:26;;;;;;;0.28;0.20;;;14.90;99.90;;;;;;4867540;29;20088;-93
2023/07/03 05:07:52;;;;;;;0.00;0.00;;;14.90;99.90;;;;;;4867108;29;20559;-91
2023/07/03 05:10:19;;;;;;;0.50;0.20;;;14.90;99.90;;;;;;4883103;29;20189;-91
2023/07/03 05:12:45;;;;;;;0.22;0.22;;;14.90;99.90;;;;;;4898295;29;20060;-92
2023/07/03 05:15:12;;;;;;;0.10;0.10;;;15.10;99.90;;;;;;4899606;29;20430;-92
2023/07/03 05:17:39;;;;;;;0.40;0.17;;;15.40;41.10;;;;;;4898138;29;20061;-87
2023/07/03 05:20:11;;;;;;;0.10;0.10;;;15.70;99.90;;;;;;4882921;29;20056;-92
2023/07/03 05:22:38;;;;;;;0.10;0.10;;;15.80;99.90;;;;;;4882692;29;20087;-92
2023/07/03 05:25:05;;;;;;;0.20;0.20;;;15.70;99.90;;;;;;4882934;29;20049;-92
2023/07/03 05:27:32;;;;;;;0.00;0.00;;;15.70;1.00;;;;;;4867541;29;20108;-91
2023/07/03 05:29:58;;;;;;;1.98;0.30;;;15.70;99.80;;;;;;4882827;29;20188;-91
2023/07/03 05:32:24;;;;;;;0.10;0.10;;;15.80;58.30;;;;;;4882888;29;20127;-92
2023/07/03 05:34:50;;;;;;;;;;;15.90;1.00;;;;;;4916863;29;20055;-94
2023/07/03 05:37:16;;;;;;;0.68;0.30;;;15.90;99.90;;;;;;4918239;29;20428;-91
2023/07/03 05:39:46;;;;;;;;;;;15.90;99.90;;;;;;4918468;29;20051;-87
2023/07/03 05:42:12;;;;;;;0.38;0.30;;;15.80;98.00;;;;;;4901302;29;20285;-91
2023/07/03 05:44:38;;;;;;;0.57;0.38;;;15.70;1.00;;;;;;4885797;29;20064;-91
2023/07/03 05:47:03;;;;;;;0.10;0.10;;;15.80;99.90;;;;;;4888230;29;20040;-94
2023/07/03 05:49:29;;;;;;;0.10;0.10;;;15.90;99.90;;;;;;4901980;29;20352;-88
2023/07/03 05:51:55;;;;;;;0.30;0.30;;;15.90;99.90;;;;;;4917711;29;20515;-90
2023/07/03 05:54:21;;;;;;;0.20;0.07;;;15.90;1.00;;;;;;4901169;29;20052;-91
2023/07/03 05:57:00;;;;;;;;;;;16.30;34.00;;;;;;4910032;29;20063;-91
2023/07/03 05:59:26;;;;;;;0.20;0.20;;;16.80;99.90;;;;;;4915558;29;19991;-91
2023/07/03 06:01:54;;;;;;;0.20;0.10;;;16.70;1.00;;;;;;4900672;29;20088;-91
2023/07/03 06:04:22;;;;;;;0.45;0.08;;;16.50;99.90;;;;;;4917502;29;20051;-91
2023/07/03 06:06:55;;;;;;;0.10;0.10;;;16.40;99.90;;;;;;4900094;29;20052;-91
2023/07/03 06:09:22;;;;;;;0.28;0.22;;;16.70;99.90;;;;;;4900816;29;20060;-90
2023/07/03 06:11:48;;;;;;;0.73;0.30;;;17.30;1.00;;;;;;4884757;29;20052;-90
2023/07/03 06:14:17;;;;;;;0.20;0.20;;;17.90;99.90;;;;;;4887367;29;20059;-96
2023/07/03 06:16:47;;;;;;;0.43;0.15;;;18.00;1.00;;;;;;4917957;29;20048;-93
2023/07/03 06:19:15;;;;;;;0.00;0.00;;;17.70;99.90;;;;;;4917499;29;20107;-94
2023/07/03 06:21:41;;;;;;;0.43;0.30;;;17.30;99.90;;;;;;4901070;29;20052;-90
2023/07/03 06:24:09;;;;;;;0.05;0.00;;;17.00;1.00;;;;;;4915816;29;20051;-91
2023/07/03 06:26:35;;;;;;;0.15;0.15;;;16.80;99.90;;;;;;4884910;29;20400;-92
2023/07/03 06:29:02;;;;;;;0.35;0.25;;;16.70;99.90;;;;;;4916582;29;20051;-90
2023/07/03 06:31:28;;;;;;;0.22;0.20;;;16.50;99.90;;;;;;4917194;29;20056;-87
2023/07/03 06:33:54;;;;;;;0.00;0.00;;;16.40;99.90;;;;;;4899709;29;20052;-90
2023/07/03 06:36:21;;;;;;;3.78;0.13;;;16.50;94.40;;;;;;4868453;29;20056;-90
2023/07/03 06:38:55;;;;;;;0.38;0.22;;;16.80;63.40;;;;;;4916794;29;20147;-89
2023/07/03 06:41:22;;;;;;;0.10;0.10;;;17.20;99.90;;;;;;4900046;29;20063;-91
2023/07/03 06:43:48;;;;;;;0.20;0.20;;;17.30;1.00;;;;;;4885238;29;20048;-88
2023/07/03 06:46:14;;;;;;;0.13;0.13;;;17.30;1.00;;;;;;4900524;29;20048;-90
2023/07/03 06:48:41;;;;;;;0.20;0.20;;;17.10;1.00;;;;;;4899908;29;20519;-94
2023/07/03 06:51:08;;;;;;;;;;;16.90;99.90;;;;;;4900021;29;20503;-90
2023/07/03 06:53:34;;;;;;;1.20;0.37;;;16.60;99.90;;;;;;4899369;29;19930;-91
2023/07/03 06:56:01;;;;;;;0.20;0.20;;;16.20;99.90;;;;;;4898875;29;20040;-87
2023/07/03 06:58:28;;;;;;;0.13;0.13;;;15.90;1.00;;;;;;4899420;29;20084;-87
2023/07/03 07:00:55;;;;;;;0.30;0.20;;;15.70;1.00;;;;;;4916279;29;20051;-89
2023/07/03 07:03:20;;;;;;;0.32;0.20;;;15.50;1.00;;;;;;4884449;29;20116;-89
2023/07/03 07:05:46;;;;;;;0.57;0.50;;;15.30;1.00;;;;;;4899808;29;20052;-85
2023/07/03 07:08:18;;;;;;;0.28;0.20;;;15.20;1.00;;;;;;4884513;29;20052;-86
2023/07/03 07:10:44;;;;;;;0.17;0.17;;;15.10;1.00;;;;;;4885972;29;20063;-86
2023/07/03 07:13:11;;;;;;;0.60;0.20;;;15.00;1.00;;;;;;4900111;29;20405;-85
2023/07/03 07:15:41;;;;;;;0.10;0.10;;;15.00;1.00;;;;;;4899744;29;20485;-86
2023/07/03 07:18:08;;;;;;;0.10;0.10;;;15.00;1.00;;;;;;4898881;29;20131;-86
2023/07/03 07:20:38;;;;;;;0.10;0.10;;;15.20;1.00;;;;;;4902079;29;20088;-84
2023/07/03 07:23:04;;;;;;;0.10;0.10;;;15.50;15.20;;;;;;4886729;29;20505;-88
2023/07/03 07:25:30;;;;;;;0.52;0.30;;;15.80;1.00;;;;;;4920242;29;20052;-87
2023/07/03 07:27:56;;;;;;;0.13;0.13;;;16.10;1.00;;;;;;4887313;29;20060;-87
2023/07/03 07:30:22;;;;;;;0.28;0.28;;;16.50;1.00;;;;;;4903389;29;20044;-89
2023/07/03 07:32:49;;;;;;;0.10;0.10;;;16.70;1.00;;;;;;4903810;29;20148;-88
2023/07/03 07:35:15;;;;;;;0.30;0.20;;;16.80;1.00;;;;;;4903416;29;20063;-89
2023/07/03 07:37:41;;;;;;;0.10;0.10;;;17.00;99.90;;;;;;4903696;29;20096;-89
2023/07/03 07:40:08;;;;;;;0.20;0.20;;;17.00;99.90;;;;;;4872283;29;20143;-89
2023/07/03 07:42:35;;;;;;;1.65;0.20;;;16.90;99.90;;;;;;4903380;29;20408;-89
2023/07/03 07:45:00;;;;;;;0.10;0.10;;;16.80;99.90;;;;;;4903060;29;20056;-89
2023/07/03 07:47:26;;;;;;;0.17;0.17;;;16.70;99.90;;;;;;4903186;29;20048;-90
2023/07/03 07:49:52;;;;;;;0.20;0.20;;;16.60;99.90;;;;;;4887520;29;20378;-89
2023/07/03 07:52:17;;;;;;;0.10;0.10;;;16.50;1.00;;;;;;4902994;29;20352;-91
2023/07/03 07:54:43;;;;;;;1.08;0.38;;;16.50;99.90;;;;;;4902956;29;20493;-88
2023/07/03 07:57:09;;;;;;;0.33;0.23;;;16.30;1.00;;;;;;4872121;29;20056;-88
2023/07/03 07:59:35;;;;;;;0.20;0.20;;;16.20;1.00;;;;;;4887809;29;20083;-87
2023/07/03 08:02:01;;;;;;;0.35;0.22;;;16.00;1.00;;;;;;4887668;29;20059;-87
2023/07/03 08:04:27;;;;;;;0.10;0.10;;;15.80;1.00;;;;;;4903481;29;20481;-88
2023/07/03 08:06:53;;;;;;;0.20;0.20;;;15.50;1.00;;;;;;4919998;29;20052;-86
2023/07/03 08:09:23;;;;;;;0.00;0.00;;;15.20;1.00;;;;;;4903175;29;20091;-86
2023/07/03 08:11:49;;;;;;;0.98;0.43;;;14.90;3.20;;;;;;4887558;29;20055;-85
2023/07/03 08:14:15;;;;;;;0.00;0.00;;;14.70;21.50;;;;;;4902986;29;20040;-84
2023/07/03 08:16:41;;;;;;;0.10;0.10;;;14.50;38.50;;;;;;4919825;29;20102;-84
2023/07/03 08:19:07;;;;;;;0.10;0.10;;;14.40;55.10;;;;;;4888079;29;20048;-85
2023/07/03 08:21:32;;;;;;;0.20;0.20;;;14.40;66.50;;;;;;4905031;29;20059;-84
2023/07/03 08:23:58;;;;;;;0.10;0.10;;;14.30;70.60;;;;;;4904131;29;20556;-84
2023/07/03 08:26:24;;;;;;;0.20;0.20;;;14.30;73.80;;;;;;4902731;29;20052;-84
2023/07/03 08:28:52;;;;;;;0.10;0.10;;;14.50;92.60;;;;;;4902797;29;20169;-83
2023/07/03 08:31:18;;;;;;;0.00;0.00;;;14.80;92.10;;;;;;4918705;29;20052;-87
2023/07/03 08:33:44;;;;;;;0.00;0.00;;;14.90;89.40;;;;;;4919093;29;20158;-83
2023/07/03 08:36:09;;;;;;;0.10;0.10;;;15.00;83.50;;;;;;4886648;29;20104;-83
2023/07/03 08:38:35;;;;;;;0.20;0.20;;;15.10;85.20;;;;;;4886942;29;20044;-85
2023/07/03 08:41:01;;;;;;;0.10;0.10;;;15.10;74.80;;;;;;4887091;29;20784;-85
2023/07/03 08:43:38;;;;;;;1.17;0.30;;;15.10;73.40;;;;;;4902481;29;20132;-85
2023/07/03 08:46:09;;;;;;;0.10;0.10;;;15.00;58.70;;;;;;4917786;29;20051;-86
2023/07/03 08:48:36;;;;;;;0.20;0.20;;;14.90;57.40;;;;;;4918164;29;20090;-86
2023/07/03 08:51:03;;;;;;;;;;;14.90;63.70;;;;;;4902767;29;20086;-85
2023/07/03 08:53:44;;;;;;;0.10;0.10;;;14.80;56.20;;;;;;4901853;29;19927;-85
2023/07/03 08:56:16;;;;;;;0.05;0.05;;;14.70;69.90;;;;;;4901878;29;20055;-85
2023/07/03 08:58:44;;;;;;;0.10;0.10;;;14.70;75.00;;;;;;4916914;29;20104;-85
2023/07/03 09:01:15;;;;;;;0.10;0.10;;;14.70;84.00;;;;;;4901593;29;20052;-86
2023/07/03 09:04:18;;;;;;;0.30;0.10;;;14.70;84.40;;;;;;4886578;29;20146;-85
2023/07/03 09:07:09;;;;;;;0.20;0.20;;;14.70;87.20;;;;;;4901966;29;20465;-85
2023/07/03 09:10:00;;;;;;;0.28;0.20;;;14.70;89.70;;;;;;4904941;29;20489;-84
2023/07/03 09:12:49;;;;;;;0.35;0.35;;;14.80;84.90;;;;;;4901738;29;20580;-83
2023/07/03 09:15:25;;;;;;;0.13;0.13;;;14.80;87.90;;;;;;4885871;29;20055;-84
2023/07/03 09:17:52;;;;;;;0.10;0.10;;;14.80;90.20;;;;;;4901764;29;20052;-85
2023/07/03 09:20:19;;;;;;;0.47;0.10;;;14.90;92.10;;;;;;4901314;29;20060;-85
2023/07/03 09:22:49;;;;;;;0.40;0.30;;;14.00;93.90;;;;;;4901740;29;20063;-86
2023/07/03 09:25:23;;;;;;;0.85;0.20;;;14.50;94.70;;;;;;4901725;29;20131;-86
2023/07/03 09:27:53;;;;;;;0.15;0.15;;;15.30;94.20;;;;;;4918472;29;20048;-86
2023/07/03 09:30:19;;;;;;;0.32;0.20;;;15.60;93.70;;;;;;4901437;29;20067;-86
2023/07/03 09:32:44;;;;;;;1.27;0.32;;;15.80;93.20;;;;;;4886759;29;20052;-86
2023/07/03 09:35:15;;;;;;;0.23;0.23;;;15.90;89.40;;;;;;4885398;29;20060;-87
2023/07/03 09:37:51;;;;;;;0.00;0.00;;;16.10;88.10;;;;;;4901788;29;20811;-87
2023/07/03 09:40:29;;;;;;;0.07;0.07;;;16.30;88.40;;;;;;4917657;29;20048;-87
2023/07/03 09:42:55;;;;;;;0.20;0.20;;;16.50;48.10;;;;;;4917588;29;20048;-87
2023/07/03 09:45:23;;;;;;;0.10;0.10;;;16.50;70.10;;;;;;4885250;29;20051;-86
2023/07/03 09:47:57;;;;;;;0.10;0.10;;;16.50;51.60;;;;;;4901171;29;20063;-86
2023/07/03 09:50:44;;;;;;;0.20;0.20;;;16.50;65.70;;;;;;4885203;29;20481;-87
2023/07/03 09:53:16;;;;;;;0.10;0.10;;;16.40;47.70;;;;;;4886137;29;20055;-91
2023/07/03 09:55:43;;;;;;;0.43;0.32;;;16.30;61.60;;;;;;4901352;29;20056;-89
2023/07/03 09:58:16;;;;;;;0.32;0.10;;;16.20;61.70;;;;;;4916657;29;20100;-88
2023/07/03 10:00:49;;;;;;;0.68;0.10;;;16.20;61.50;;;;;;4885209;29;20059;-89
2023/07/03 10:03:23;;;;;;;0.10;0.10;;;16.10;69.00;;;;;;4900732;29;20104;-88
2023/07/03 10:05:48;;;;;;;0.20;0.20;;;16.10;67.60;;;;;;4916849;29;20095;-89
2023/07/03 10:08:21;;;;;;;0.40;0.30;;;16.00;69.90;;;;;;4900579;29;20095;-89
2023/07/03 10:10:49;;;;;;;0.05;0.05;;;16.20;71.50;;;;;;4916803;29;20052;-89
2023/07/03 10:13:30;;;;;;;0.20;0.20;;;16.40;78.20;;;;;;4902403;29;20131;-88
2023/07/03 10:15:56;;;;;;;0.45;0.22;;;16.60;61.50;;;;;;4918720;29;20048;-91
2023/07/03 10:18:33;;;;;;;;;;;16.70;64.80;;;;;;4885144;29;20115;-90
2023/07/03 10:21:02;;;;;;;0.17;0.13;;;16.80;1.00;;;;;;4900644;29;19934;-89
2023/07/03 10:23:37;;;;;;;1.52;0.35;;;17.00;12.10;;;;;;4900252;29;20052;-89
2023/07/03 10:26:25;;;;;;;0.30;0.30;;;17.20;16.60;;;;;;4900896;29;20052;-87
2023/07/03 10:29:00;;;;;;;0.05;0.05;;;17.50;1.00;;;;;;4900560;29;20111;-87
2023/07/03 10:31:50;;;;;;;0.00;0.00;;;17.50;1.00;;;;;;4917283;29;20052;-90
2023/07/03 10:34:25;;;;;;;0.20;0.20;;;17.40;99.90;;;;;;4900032;29;20092;-89
2023/07/03 10:37:01;;;;;;;0.15;0.15;;;17.20;99.90;;;;;;4900107;29;20063;-89
2023/07/03 10:39:44;;;;;;;0.00;0.00;;;17.20;99.90;;;;;;4915860;29;20505;-88
2023/07/03 10:42:22;;;;;;;0.10;0.10;;;16.70;1.00;;;;;;4900246;29;20059;-90
2023/07/03 10:44:52;;;;;;;0.00;0.00;;;17.10;99.90;;;;;;4920137;29;20135;-89
2023/07/03 10:47:52;;;;;;;0.17;0.00;;;17.20;99.90;;;;;;4902489;29;20115;-89
2023/07/03 10:50:26;;;;;;;0.25;0.25;;;17.40;1.00;;;;;;4914974;29;20079;-88
2023/07/03 10:53:26;;;;;;;0.20;0.10;;;17.70;99.90;;;;;;4900213;29;20056;-90
2023/07/03 10:56:06;;;;;;;0.10;0.10;;;17.80;99.90;;;;;;4889191;29;20146;-89
2023/07/03 10:58:49;;;;;;;0.30;0.30;;;17.80;99.90;;;;;;4899593;29;20123;-90
2023/07/03 11:01:39;;;;;;;0.20;0.20;;;17.80;99.90;;;;;;4901073;29;20051;-90
2023/07/03 11:04:17;;;;;;;0.00;0.00;;;17.80;99.90;;;;;;4900310;29;20143;-89
2023/07/03 11:06:57;;;;;;;0.10;0.10;;;17.80;99.90;;;;;;4899618;29;20084;-89
2023/07/03 11:09:42;;;;;;;0.10;0.10;;;17.80;99.90;;;;;;4899449;29;20044;-89
2023/07/03 11:12:21;;;;;;;0.00;0.00;;;17.70;99.90;;;;;;4900019;29;20058;-90
2023/07/03 11:15:22;;;;;;;0.10;0.10;;;17.70;3.30;;;;;;4900213;29;20048;-89
2023/07/03 11:18:09;;;;;;;0.40;0.05;;;17.60;1.00;;;;;;4899357;29;20052;-89
2023/07/03 11:20:46;;;;;;;0.05;0.05;;;17.50;1.00;;;;;;4899290;29;20051;-88
2023/07/03 11:23:29;;;;;;;0.13;0.13;;;17.40;99.90;;;;;;4916901;29;20048;-89
2023/07/03 11:26:20;;;;;;;0.10;0.10;;;17.30;1.00;;;;;;4900166;29;20400;-95
2023/07/03 11:28:50;;;;;;;0.20;0.20;;;17.20;98.30;;;;;;4900104;29;20056;-88
2023/07/03 11:31:16;;;;;;;0.10;0.10;;;17.10;1.00;;;;;;4915505;29;20409;-89
2023/07/03 11:33:44;;;;;;;0.20;0.15;;;17.10;99.90;;;;;;4915681;29;20286;-89
2023/07/03 11:36:33;;;;;;;0.03;0.00;;;17.10;1.00;;;;;;4884215;29;20131;-91
2023/07/03 11:39:28;;;;;;;0.00;0.00;;;17.10;99.90;;;;;;4906156;29;20067;-89
2023/07/03 11:42:08;;;;;;;0.05;0.05;;;17.20;1.00;;;;;;4884169;29;20054;-87
2023/07/03 11:44:48;;;;;;;0.30;0.13;;;17.20;1.00;;;;;;4899434;29;20052;-88
2023/07/03 11:47:27;;;;;;;0.10;0.10;;;17.40;99.90;;;;;;4899980;29;20056;-88
2023/07/03 11:50:05;;;;;;;0.20;0.10;;;17.70;99.90;;;;;;4899951;29;20084;-88
2023/07/03 11:52:36;;;;;;;0.20;0.20;;;18.10;1.00;;;;;;4899804;29;20112;-88
2023/07/03 11:55:14;;;;;;;0.10;0.10;;;18.40;99.90;;;;;;4899671;29;20056;-88
2023/07/03 11:57:44;;;;;;;1.33;0.10;;;18.60;99.90;;;;;;4900033;29;20048;-88
2023/07/03 12:00:22;;;;;;;0.10;0.10;;;18.60;1.00;;;;;;4884583;29;20052;-88
2023/07/03 12:02:55;;;;;;;0.00;0.00;;;18.50;99.90;;;;;;4883318;29;20472;-89
2023/07/03 12:05:43;;;;;;;0.00;0.00;;;18.30;1.00;;;;;;4900436;29;20108;-89
2023/07/03 12:08:18;;;;;;;0.05;0.05;;;18.20;99.90;;;;;;4887346;29;20056;-89
2023/07/03 12:10:50;;;;;;;0.00;0.00;;;18.00;99.90;;;;;;4902536;29;20077;-91
2023/07/03 12:13:41;;;;;;;0.20;0.17;;;17.90;99.90;;;;;;4887296;29;20052;-89
2023/07/03 12:16:14;;;;;;;0.15;0.10;;;17.70;1.00;;;;;;4887398;29;20052;-89
2023/07/03 12:18:43;;;;;;;0.03;0.03;;;17.60;99.90;;;;;;4902685;29;20040;-90
2023/07/03 12:21:09;;;;;;;0.00;0.00;;;17.50;99.90;;;;;;4872431;29;20087;-89
2023/07/03 12:23:44;;;;;;;0.00;0.00;;;17.40;99.90;;;;;;4886461;29;20055;-89
2023/07/03 12:26:12;;;;;;;0.20;0.20;;;17.30;99.90;;;;;;4902380;29;20052;-89
2023/07/03 12:28:39;;;;;;;0.10;0.10;;;17.30;1.00;;;;;;4902577;29;20456;-89
2023/07/03 12:31:16;;;;;;;0.20;0.20;;;17.30;99.90;;;;;;4887180;29;20150;-89
2023/07/03 12:33:57;;;;;;;0.95;0.10;;;17.20;99.90;;;;;;4902215;29;20123;-89
2023/07/03 12:36:30;;;;;;;0.10;0.10;;;17.20;95.30;;;;;;4902665;29;20116;-89
2023/07/03 12:38:58;;;;;;;0.30;0.20;;;17.30;99.90;;;;;;4918250;29;20052;-89
2023/07/03 12:41:31;;;;;;;0.08;0.05;;;17.20;1.00;;;;;;4902664;29;20052;-89
2023/07/03 12:43:59;;;;;;;0.00;0.00;;;16.80;59.20;;;;;;4902715;29;20048;-89
2023/07/03 12:46:34;;;;;;;0.00;0.00;;;17.10;99.90;;;;;;4902183;29;20489;-89
2023/07/03 12:49:09;;;;;;;0.20;0.13;;;17.00;99.90;;;;;;4886725;29;20131;-90
2023/07/03 12:51:38;;;;;;;0.03;0.03;;;16.90;99.90;;;;;;4902781;29;20132;-90
2023/07/03 12:54:05;;;;;;;0.63;0.13;;;16.80;99.90;;;;;;4919616;29;20063;-90
2023/07/03 12:56:33;;;;;;;0.45;0.00;;;16.60;99.90;;;;;;4902713;29;20044;-87
2023/07/03 12:58:59;;;;;;;0.25;0.10;;;16.60;99.90;;;;;;4902392;29;20083;-89
2023/07/03 13:01:25;;;;;;;;;;;16.60;99.90;;;;;;4887413;29;20044;-89
2023/07/03 13:03:51;;;;;;;0.90;0.60;;;16.50;93.00;;;;;;4886869;29;19996;-89
2023/07/03 13:06:29;;;;;;;0.47;0.47;;;16.50;90.10;;;;;;4887061;29;20481;-89